createdAt,value
2023-05-16T00:01:09.369Z,99.90
2023-05-16T00:03:39.584Z,99.90
2023-05-16T00:06:07.176Z,99.90
2023-05-16T00:11:01.995Z,99.90
2023-05-16T00:16:00.361Z,99.90
2023-05-16T00:18:27.647Z,99.90
2023-05-16T00:20:55.492Z,99.90
2023-05-16T00:23:22.763Z,99.90
2023-05-16T00:25:50.462Z,99.90
2023-05-16T00:28:17.799Z,99.90
2023-05-16T00:33:14.724Z,99.90
2023-05-16T00:35:42.128Z,99.90
2023-05-16T00:38:09.665Z,99.90
2023-05-16T00:40:37.805Z,99.90
2023-05-16T00:43:05.230Z,99.90
2023-05-16T00:45:32.599Z,99.90
2023-05-16T00:48:01.062Z,99.90
2023-05-16T00:50:28.953Z,99.90
2023-05-16T00:55:24.740Z,99.90
2023-05-16T00:57:52.900Z,99.90
2023-05-16T01:00:20.521Z,99.90
2023-05-16T01:02:48.330Z,99.90
2023-05-16T01:05:16.106Z,99.90
2023-05-16T01:07:44.048Z,99.90
2023-05-16T01:10:12.011Z,99.90
2023-05-16T01:13:10.260Z,99.90
2023-05-16T01:16:06.703Z,99.90
2023-05-16T01:18:47.332Z,99.90
2023-05-16T01:21:32.567Z,99.90
2023-05-16T01:24:09.289Z,99.90
2023-05-16T01:26:38.953Z,99.90
2023-05-16T01:29:08.064Z,99.90
2023-05-16T01:31:36.067Z,99.90
2023-05-16T01:34:03.514Z,99.90
2023-05-16T01:36:55.989Z,99.90
2023-05-16T01:39:59.502Z,99.90
2023-05-16T01:42:32.631Z,99.90
2023-05-16T01:45:24.843Z,99.90
2023-05-16T01:48:10.756Z,99.90
2023-05-16T01:50:47.870Z,99.90
2023-05-16T01:53:20.782Z,99.90
2023-05-16T01:55:51.893Z,99.90
2023-05-16T01:58:25.033Z,99.90
2023-05-16T02:01:01.241Z,99.90
2023-05-16T02:05:56.816Z,99.90
2023-05-16T02:08:26.380Z,99.90
2023-05-16T02:10:54.338Z,99.90
2023-05-16T02:13:22.080Z,99.90
2023-05-16T02:15:49.722Z,99.90
2023-05-16T02:18:18.881Z,99.90
2023-05-16T02:20:46.208Z,99.90
2023-05-16T02:23:13.537Z,99.90
2023-05-16T02:25:40.820Z,99.90
2023-05-16T02:28:10.574Z,99.90
2023-05-16T02:30:38.007Z,99.90
2023-05-16T02:33:05.483Z,99.90
2023-05-16T02:35:32.919Z,99.90
2023-05-16T02:38:00.847Z,99.90
2023-05-16T02:40:28.198Z,99.90
2023-05-16T02:42:56.858Z,99.90
2023-05-16T02:45:24.218Z,99.90
2023-05-16T02:47:51.586Z,99.90
2023-05-16T02:50:19.473Z,99.90
2023-05-16T02:52:47.330Z,99.90
2023-05-16T02:57:44.944Z,99.90
2023-05-16T03:00:15.710Z,99.90
2023-05-16T03:02:45.499Z,99.90
2023-05-16T03:05:13.456Z,99.90
2023-05-16T03:07:41.379Z,99.90
2023-05-16T03:10:09.163Z,99.90
2023-05-16T03:12:36.494Z,99.90
2023-05-16T03:15:04.341Z,99.90
2023-05-16T03:17:31.959Z,99.90
2023-05-16T03:19:59.277Z,99.90
2023-05-16T03:22:26.597Z,99.90
2023-05-16T03:24:53.994Z,99.90
2023-05-16T03:27:23.268Z,99.90
2023-05-16T03:29:50.617Z,99.90
2023-05-16T03:32:18.029Z,99.90
2023-05-16T03:34:46.867Z,99.90
2023-05-16T03:37:16.171Z,99.90
2023-05-16T03:39:43.829Z,99.90
2023-05-16T03:42:11.976Z,99.90
2023-05-16T03:44:39.580Z,99.90
2023-05-16T03:47:07.003Z,99.90
2023-05-16T03:49:34.326Z,99.90
2023-05-16T03:52:01.813Z,99.90
2023-05-16T03:54:29.143Z,99.90
2023-05-16T03:56:56.528Z,99.90
2023-05-16T03:59:24.500Z,99.90
2023-05-16T04:01:51.867Z,99.90
2023-05-16T04:04:19.273Z,99.90
2023-05-16T04:06:46.690Z,99.90
2023-05-16T04:09:14.191Z,99.90
2023-05-16T04:11:41.459Z,99.90
2023-05-16T04:14:08.807Z,99.90
2023-05-16T04:16:36.163Z,99.90
2023-05-16T04:19:03.963Z,99.90
2023-05-16T04:21:32.005Z,99.90
2023-05-16T04:23:59.794Z,99.90
2023-05-16T04:26:27.529Z,99.90
2023-05-16T04:28:54.806Z,99.90
2023-05-16T04:31:24.563Z,99.90
2023-05-16T04:33:53.008Z,99.90
2023-05-16T04:36:21.384Z,99.90
2023-05-16T04:38:48.682Z,99.90
2023-05-16T04:41:16.590Z,99.90
2023-05-16T04:43:44.678Z,99.90
2023-05-16T04:46:12.513Z,99.90
2023-05-16T04:48:39.795Z,99.90
2023-05-16T04:51:07.403Z,99.90
2023-05-16T04:53:34.827Z,99.90
2023-05-16T04:56:02.695Z,99.90
2023-05-16T04:58:30.114Z,99.90
2023-05-16T05:00:57.892Z,99.90
2023-05-16T05:03:25.326Z,99.90
2023-05-16T05:05:52.625Z,99.90
2023-05-16T05:08:19.923Z,99.90
2023-05-16T05:10:47.738Z,99.90
2023-05-16T05:13:15.266Z,99.90
2023-05-16T05:15:42.600Z,99.90
2023-05-16T05:18:10.292Z,99.90
2023-05-16T05:20:38.041Z,99.90
2023-05-16T05:23:05.555Z,99.90
2023-05-16T05:25:35.875Z,99.90
2023-05-16T05:28:04.773Z,99.90
2023-05-16T05:30:32.181Z,99.90
2023-05-16T05:32:59.562Z,99.90
2023-05-16T05:35:27.276Z,99.90
2023-05-16T05:37:54.721Z,99.90
2023-05-16T05:40:22.129Z,99.90
2023-05-16T05:42:49.394Z,99.90
2023-05-16T05:45:16.859Z,99.90
2023-05-16T05:47:44.484Z,99.90
2023-05-16T05:50:13.810Z,99.90
2023-05-16T05:52:41.653Z,99.90
2023-05-16T05:55:09.217Z,99.90
2023-05-16T05:57:36.545Z,99.90
2023-05-16T06:00:05.332Z,99.90
2023-05-16T06:02:36.013Z,99.90
2023-05-16T06:05:03.592Z,99.90
2023-05-16T06:09:58.653Z,99.90
2023-05-16T06:12:25.912Z,99.90
2023-05-16T06:14:53.256Z,99.90
2023-05-16T06:17:20.726Z,99.90
2023-05-16T06:19:48.048Z,99.90
2023-05-16T06:22:15.710Z,99.90
2023-05-16T06:24:43.886Z,99.90
2023-05-16T06:27:11.805Z,99.90
2023-05-16T06:29:39.391Z,99.90
2023-05-16T06:32:07.389Z,99.90
2023-05-16T06:34:34.714Z,99.90
2023-05-16T06:39:31.291Z,99.90
2023-05-16T06:41:58.891Z,99.90
2023-05-16T06:46:55.054Z,99.90
2023-05-16T06:49:24.033Z,99.90
2023-05-16T06:51:52.544Z,99.90
2023-05-16T06:54:20.179Z,99.90
2023-05-16T06:56:47.533Z,99.90
2023-05-16T06:59:15.698Z,99.90
2023-05-16T07:01:43.087Z,99.90
2023-05-16T07:04:10.537Z,99.90
2023-05-16T07:06:38.196Z,99.90
2023-05-16T07:09:05.854Z,99.90
2023-05-16T07:11:34.551Z,99.90
2023-05-16T07:14:01.901Z,99.90
2023-05-16T07:16:29.373Z,99.90
2023-05-16T07:18:57.046Z,99.90
2023-05-16T07:21:24.677Z,99.90
2023-05-16T07:23:52.031Z,99.90
2023-05-16T07:26:22.426Z,99.90
2023-05-16T07:28:53.374Z,99.90
2023-05-16T07:31:20.876Z,99.90
2023-05-16T07:33:49.225Z,99.90
2023-05-16T07:36:17.585Z,99.90
2023-05-16T07:38:47.046Z,99.90
2023-05-16T07:41:14.675Z,99.90
2023-05-16T07:43:42.299Z,99.90
2023-05-16T07:46:11.172Z,99.90
2023-05-16T07:48:38.647Z,99.90
2023-05-16T07:51:06.229Z,99.90
2023-05-16T07:53:33.879Z,99.90
2023-05-16T07:56:01.321Z,99.90
2023-05-16T07:58:29.040Z,99.90
2023-05-16T08:00:56.483Z,99.90
2023-05-16T08:03:24.170Z,99.90
2023-05-16T08:05:51.979Z,99.90
2023-05-16T08:08:19.513Z,99.90
2023-05-16T08:10:47.273Z,99.90
2023-05-16T08:13:14.630Z,99.90
2023-05-16T08:15:42.830Z,99.90
2023-05-16T08:18:15.104Z,99.90
2023-05-16T08:20:42.786Z,99.90
2023-05-16T08:23:10.418Z,99.90
2023-05-16T08:25:38.055Z,99.90
2023-05-16T08:28:05.605Z,99.90
2023-05-16T08:30:32.996Z,99.90
2023-05-16T08:33:04.814Z,99.90
2023-05-16T08:35:32.798Z,99.90
2023-05-16T08:38:00.481Z,99.90
2023-05-16T08:40:29.294Z,99.90
2023-05-16T08:42:56.763Z,99.90
2023-05-16T08:45:24.712Z,99.90
2023-05-16T08:47:55.809Z,99.90
2023-05-16T08:50:25.162Z,99.90
2023-05-16T08:52:53.751Z,99.90
2023-05-16T08:55:22.338Z,99.90
2023-05-16T08:57:53.596Z,99.90
2023-05-16T09:00:22.537Z,99.90
2023-05-16T09:02:50.280Z,99.90
2023-05-16T09:05:18.552Z,99.90
2023-05-16T09:07:46.225Z,99.90
2023-05-16T09:10:14.106Z,99.90
2023-05-16T09:12:42.413Z,99.90
2023-05-16T09:15:11.420Z,99.90
2023-05-16T09:17:43.772Z,99.90
2023-05-16T09:20:16.530Z,99.90
2023-05-16T09:22:57.837Z,99.90
2023-05-16T09:25:31.076Z,99.90
2023-05-16T09:28:02.391Z,99.90
2023-05-16T09:30:31.894Z,99.90
2023-05-16T09:32:59.734Z,99.90
2023-05-16T09:37:58.304Z,99.90
2023-05-16T09:40:25.769Z,99.90
2023-05-16T09:43:04.403Z,99.90
2023-05-16T09:45:34.292Z,99.90
2023-05-16T09:48:10.173Z,99.90
2023-05-16T09:50:38.119Z,99.90
2023-05-16T09:53:06.116Z,99.90
2023-05-16T09:55:33.901Z,99.90
2023-05-16T09:58:01.779Z,99.90
2023-05-16T10:00:33.760Z,99.90
2023-05-16T10:03:05.261Z,99.90
2023-05-16T10:05:34.693Z,99.90
2023-05-16T10:08:03.949Z,99.90
2023-05-16T10:10:34.954Z,99.90
2023-05-16T10:13:04.017Z,99.90
2023-05-16T10:15:31.839Z,99.90
2023-05-16T10:18:00.732Z,99.90
2023-05-16T10:20:28.786Z,99.90
2023-05-16T10:22:58.136Z,99.90
2023-05-16T10:25:41.334Z,99.90
2023-05-16T10:28:12.891Z,99.90
2023-05-16T10:30:45.701Z,99.90
2023-05-16T10:33:17.961Z,99.90
2023-05-16T10:35:46.691Z,99.90
2023-05-16T10:38:17.441Z,99.90
2023-05-16T10:40:45.595Z,99.90
2023-05-16T10:43:27.094Z,99.90
2023-05-16T10:46:02.835Z,99.90
2023-05-16T10:48:38.892Z,99.90
2023-05-16T10:51:33.609Z,99.90
2023-05-16T10:54:10.152Z,99.90
2023-05-16T10:56:37.925Z,99.90
2023-05-16T10:59:22.029Z,99.90
2023-05-16T11:01:53.963Z,99.90
2023-05-16T11:06:53.734Z,99.90
2023-05-16T11:09:23.565Z,99.90
2023-05-16T11:12:04.106Z,99.90
2023-05-16T11:14:34.300Z,99.90
2023-05-16T11:17:13.898Z,99.90
2023-05-16T11:19:47.233Z,99.90
2023-05-16T11:22:23.768Z,99.90
2023-05-16T11:24:54.116Z,99.90
2023-05-16T11:27:32.572Z,99.90
2023-05-16T11:30:05.830Z,99.90
2023-05-16T11:32:44.482Z,99.90
2023-05-16T11:35:25.514Z,99.90
2023-05-16T11:37:53.711Z,99.90
2023-05-16T11:42:49.776Z,99.60
2023-05-16T11:45:26.024Z,99.90
2023-05-16T11:47:53.636Z,98.50
2023-05-16T11:50:23.549Z,99.20
2023-05-16T11:52:56.390Z,99.00
2023-05-16T11:55:40.422Z,99.00
2023-05-16T11:58:09.627Z,97.70
2023-05-16T12:00:37.102Z,97.50
2023-05-16T12:03:06.387Z,98.90
2023-05-16T12:05:35.527Z,99.30
2023-05-16T12:08:05.793Z,98.20
2023-05-16T12:10:36.404Z,97.00
2023-05-16T12:13:04.521Z,99.90
2023-05-16T12:15:32.321Z,97.50
2023-05-16T12:18:00.216Z,97.50
2023-05-16T12:20:27.642Z,96.80
2023-05-16T12:22:58.294Z,95.70
2023-05-16T12:25:32.001Z,96.10
2023-05-16T12:28:01.717Z,95.40
2023-05-16T12:30:31.462Z,95.70
2023-05-16T12:33:18.028Z,97.00
2023-05-16T12:35:47.303Z,95.40
2023-05-16T12:38:17.019Z,94.90
2023-05-16T12:40:44.713Z,94.80
2023-05-16T12:43:23.098Z,95.30
2023-05-16T12:45:53.072Z,94.90
2023-05-16T12:48:22.004Z,94.80
2023-05-16T12:50:50.933Z,95.90
2023-05-16T12:53:18.948Z,95.00
2023-05-16T12:55:46.581Z,93.80
2023-05-16T12:58:14.195Z,95.40
2023-05-16T13:00:41.805Z,95.20
2023-05-16T13:03:09.235Z,93.00
2023-05-16T13:05:36.821Z,93.00
2023-05-16T13:08:04.876Z,93.40
2023-05-16T13:10:32.657Z,93.10
2023-05-16T13:13:00.472Z,92.80
2023-05-16T13:15:28.457Z,93.20
2023-05-16T13:17:56.464Z,99.90
2023-05-16T13:20:23.967Z,94.20
2023-05-16T13:22:51.419Z,94.40
2023-05-16T13:25:19.096Z,92.60
2023-05-16T13:27:46.466Z,92.20
2023-05-16T13:30:13.824Z,92.60
2023-05-16T13:32:42.805Z,92.00
2023-05-16T13:37:38.597Z,91.30
2023-05-16T13:40:10.621Z,93.00
2023-05-16T13:42:38.711Z,93.00
2023-05-16T13:45:07.087Z,92.20
2023-05-16T13:47:34.566Z,90.70
2023-05-16T13:50:06.099Z,91.40
2023-05-16T13:52:35.043Z,91.00
2023-05-16T13:55:04.450Z,90.30
2023-05-16T13:57:33.011Z,91.00
2023-05-16T14:02:40.558Z,91.30
2023-05-16T14:05:09.590Z,90.60
2023-05-16T14:07:37.149Z,89.60
2023-05-16T14:10:07.078Z,89.30
2023-05-16T14:12:34.650Z,90.10
2023-05-16T14:15:02.059Z,90.30
2023-05-16T14:17:29.666Z,89.80
2023-05-16T14:19:57.347Z,89.70
2023-05-16T14:22:24.751Z,90.80
2023-05-16T14:24:52.037Z,91.20
2023-05-16T14:27:21.993Z,91.10
2023-05-16T14:29:49.295Z,91.20
2023-05-16T14:32:16.934Z,90.40
2023-05-16T14:34:44.541Z,89.40
2023-05-16T14:37:12.322Z,88.70
2023-05-16T14:39:41.985Z,99.40
2023-05-16T14:42:09.304Z,88.70
2023-05-16T14:44:36.658Z,89.50
2023-05-16T14:47:04.556Z,90.20
2023-05-16T14:49:32.529Z,89.90
2023-05-16T14:51:59.978Z,90.80
2023-05-16T14:59:23.199Z,90.60
2023-05-16T15:01:50.599Z,99.90
2023-05-16T15:04:17.981Z,91.10
2023-05-16T15:06:45.536Z,91.20
2023-05-16T15:09:13.562Z,91.40
2023-05-16T15:11:41.242Z,91.40
2023-05-16T15:14:08.638Z,92.30
2023-05-16T15:16:36.026Z,92.30
2023-05-16T15:19:03.586Z,93.00
2023-05-16T15:21:32.706Z,93.30
2023-05-16T15:24:00.859Z,93.40
2023-05-16T15:26:28.405Z,93.00
2023-05-16T15:28:55.738Z,93.10
2023-05-16T15:31:23.198Z,94.20
2023-05-16T15:33:50.690Z,94.80
2023-05-16T15:36:18.323Z,95.40
2023-05-16T15:38:46.808Z,95.60
2023-05-16T15:41:26.925Z,95.90
2023-05-16T15:44:03.228Z,96.00
2023-05-16T15:46:33.378Z,96.50
2023-05-16T15:49:01.169Z,96.50
2023-05-16T15:51:28.551Z,99.90
2023-05-16T15:53:55.909Z,96.40
2023-05-16T15:56:23.309Z,96.10
2023-05-16T15:58:50.821Z,96.30
2023-05-16T16:01:18.377Z,96.20
2023-05-16T16:03:46.407Z,96.60
2023-05-16T16:06:14.152Z,96.60
2023-05-16T16:08:41.456Z,96.90
2023-05-16T16:11:09.302Z,96.60
2023-05-16T16:13:36.871Z,96.80
2023-05-16T16:16:04.445Z,96.90
2023-05-16T16:18:32.075Z,97.40
2023-05-16T16:20:59.466Z,97.40
2023-05-16T16:23:26.818Z,97.50
2023-05-16T16:25:54.377Z,97.30
2023-05-16T16:28:22.701Z,97.30
2023-05-16T16:30:50.775Z,97.10
2023-05-16T16:33:18.505Z,97.10
2023-05-16T16:35:46.158Z,96.90
2023-05-16T16:38:13.532Z,97.60
2023-05-16T16:40:41.623Z,97.50
2023-05-16T16:43:09.162Z,97.30
2023-05-16T16:45:36.600Z,97.60
2023-05-16T16:48:04.448Z,98.00
2023-05-16T16:50:32.812Z,98.20
2023-05-16T16:55:31.615Z,97.60
2023-05-16T16:57:58.985Z,98.00
2023-05-16T17:00:26.343Z,98.30
2023-05-16T17:05:21.680Z,98.10
2023-05-16T17:07:48.956Z,98.40
2023-05-16T17:10:17.306Z,98.30
2023-05-16T17:12:49.236Z,98.30
2023-05-16T17:15:19.846Z,98.30
2023-05-16T17:17:49.584Z,97.90
2023-05-16T17:20:17.150Z,97.90
2023-05-16T17:22:46.156Z,98.10
2023-05-16T17:25:13.449Z,98.20
2023-05-16T17:30:10.499Z,97.20
2023-05-16T17:35:07.476Z,97.10
2023-05-16T17:37:34.839Z,97.50
2023-05-16T17:40:02.288Z,97.60
2023-05-16T17:42:29.642Z,99.90
2023-05-16T17:44:57.150Z,97.00
2023-05-16T17:47:25.668Z,95.00
2023-05-16T17:52:22.159Z,94.80
2023-05-16T17:54:49.626Z,95.10
2023-05-16T17:57:16.914Z,95.50
2023-05-16T17:59:44.303Z,99.90
2023-05-16T18:02:15.238Z,96.30
2023-05-16T18:07:10.621Z,96.30
2023-05-16T18:09:38.637Z,99.90
2023-05-16T18:12:07.147Z,96.70
2023-05-16T18:14:34.495Z,99.90
2023-05-16T18:17:02.036Z,96.20
2023-05-16T18:19:30.826Z,96.40
2023-05-16T18:22:00.015Z,96.10
2023-05-16T18:24:27.433Z,96.50
2023-05-16T18:26:54.869Z,96.80
2023-05-16T18:29:23.581Z,97.20
2023-05-16T18:31:51.189Z,97.90
2023-05-16T18:34:18.598Z,98.60
2023-05-16T18:36:45.945Z,98.40
2023-05-16T18:39:13.583Z,98.50
2023-05-16T18:41:41.265Z,98.70
2023-05-16T18:44:08.598Z,98.90
2023-05-16T18:46:36.268Z,99.00
2023-05-16T18:49:03.757Z,99.10
2023-05-16T18:51:32.263Z,99.30
2023-05-16T18:54:00.112Z,99.40
2023-05-16T18:56:27.646Z,99.70
2023-05-16T18:58:55.246Z,99.80
2023-05-16T19:03:50.742Z,99.60
2023-05-16T19:06:18.425Z,99.90
2023-05-16T19:08:47.874Z,99.90
2023-05-16T19:11:17.748Z,99.90
2023-05-16T19:13:45.662Z,99.90
2023-05-16T19:16:13.810Z,99.90
2023-05-16T19:18:41.457Z,99.90
2023-05-16T19:21:11.149Z,99.90
2023-05-16T19:26:06.168Z,99.90
2023-05-16T19:28:34.591Z,99.90
2023-05-16T19:31:01.918Z,99.90
2023-05-16T19:33:29.576Z,99.90
2023-05-16T19:35:57.890Z,99.90
2023-05-16T19:38:26.229Z,99.90
2023-05-16T19:40:53.804Z,99.90
2023-05-16T19:45:49.269Z,99.90
2023-05-16T19:48:17.472Z,99.90
2023-05-16T19:50:44.923Z,99.90
2023-05-16T19:53:12.457Z,99.90
2023-05-16T19:55:40.301Z,99.90
2023-05-16T20:00:38.050Z,99.90
2023-05-16T20:03:05.635Z,99.90
2023-05-16T20:05:34.025Z,99.90
2023-05-16T20:08:02.716Z,99.90
2023-05-16T20:10:31.248Z,99.90
2023-05-16T20:12:58.656Z,99.90
2023-05-16T20:15:28.739Z,99.90
2023-05-16T20:17:56.896Z,99.90
2023-05-16T20:22:52.459Z,99.90
2023-05-16T20:25:19.891Z,99.90
2023-05-16T20:27:47.437Z,99.90
2023-05-16T20:30:15.058Z,99.90
2023-05-16T20:32:42.553Z,99.90
2023-05-16T20:35:13.507Z,99.90
2023-05-16T20:37:41.350Z,99.90
2023-05-16T20:40:09.482Z,99.90
2023-05-16T20:42:36.943Z,99.90
2023-05-16T20:45:06.238Z,99.90
2023-05-16T20:47:33.886Z,99.90
2023-05-16T20:50:01.839Z,99.90
2023-05-16T20:52:29.284Z,99.90
2023-05-16T20:54:58.532Z,99.90
2023-05-16T20:57:28.732Z,99.90
2023-05-16T20:59:56.816Z,99.90
2023-05-16T21:02:24.258Z,99.90
2023-05-16T21:04:52.016Z,99.90
2023-05-16T21:09:48.925Z,99.90
2023-05-16T21:12:16.382Z,99.90
2023-05-16T21:14:46.693Z,99.90
2023-05-16T21:17:14.090Z,99.90
2023-05-16T21:19:41.632Z,99.90
2023-05-16T21:22:09.122Z,99.90
2023-05-16T21:24:37.642Z,99.90
2023-05-16T21:27:05.400Z,99.90
2023-05-16T21:29:32.901Z,99.90
2023-05-16T21:32:00.544Z,99.90
2023-05-16T21:34:28.023Z,99.90
2023-05-16T21:36:55.655Z,99.90
2023-05-16T21:39:23.031Z,99.90
2023-05-16T21:41:50.460Z,99.90
2023-05-16T21:44:18.526Z,99.90
2023-05-16T21:46:46.142Z,99.90
2023-05-16T21:49:13.605Z,99.90
2023-05-16T21:51:41.251Z,99.90
2023-05-16T21:54:08.778Z,99.90
2023-05-16T21:56:36.229Z,99.90
2023-05-16T21:59:04.096Z,99.90
2023-05-16T22:01:31.721Z,99.90
2023-05-16T22:03:59.444Z,99.90
2023-05-16T22:06:27.095Z,99.90
2023-05-16T22:08:55.149Z,99.90
2023-05-16T22:11:22.673Z,99.90
2023-05-16T22:13:50.848Z,99.90
2023-05-16T22:16:18.812Z,99.90
2023-05-16T22:18:46.484Z,99.90
2023-05-16T22:21:16.308Z,99.90
2023-05-16T22:23:43.834Z,99.90
2023-05-16T22:26:11.350Z,99.90
2023-05-16T22:28:38.751Z,99.90
2023-05-16T22:31:06.404Z,99.90
2023-05-16T22:33:33.952Z,99.90
2023-05-16T22:36:03.180Z,99.90
2023-05-16T22:38:31.921Z,99.90
2023-05-16T22:40:59.491Z,99.90
2023-05-16T22:43:26.934Z,99.90
2023-05-16T22:45:54.346Z,99.90
2023-05-16T22:48:21.728Z,99.90
2023-05-16T22:50:49.259Z,99.90
2023-05-16T22:53:16.655Z,99.90
2023-05-16T22:55:44.162Z,99.90
2023-05-16T22:58:11.572Z,99.90
2023-05-16T23:00:39.104Z,99.90
2023-05-16T23:03:06.566Z,99.90
2023-05-16T23:05:34.114Z,99.90
2023-05-16T23:08:02.508Z,99.90
2023-05-16T23:10:30.391Z,99.90
2023-05-16T23:12:57.817Z,99.90
2023-05-16T23:15:25.450Z,99.90
2023-05-16T23:17:53.035Z,99.90
2023-05-16T23:20:20.804Z,99.90
2023-05-16T23:22:48.494Z,99.90
2023-05-16T23:25:15.998Z,99.90
2023-05-16T23:27:43.520Z,99.90
2023-05-16T23:30:11.445Z,99.90
2023-05-16T23:32:38.938Z,99.90
2023-05-16T23:35:06.901Z,99.90
2023-05-16T23:37:34.462Z,99.90
2023-05-16T23:40:01.827Z,99.90
2023-05-16T23:42:29.189Z,99.90
2023-05-16T23:44:56.648Z,99.90
2023-05-16T23:47:24.378Z,99.90
2023-05-16T23:49:51.774Z,99.90
2023-05-16T23:52:19.173Z,99.90
2023-05-16T23:54:46.695Z,99.90
2023-05-16T23:57:14.025Z,99.90
2023-05-16T23:59:41.651Z,99.90
